Time;durP1;ratioP1;P1;durP2;ratioP2;P2;SDS_P1;SDS_P2;PMS_P1;PMS_P2;Temp;Humidity;BMP_temperature;BMP_pressure;BME280_temperature;BME280_humidity;BME280_pressure;Samples;Min_cycle;Max_cycle;Signal;HPM_P1;HPM_P2
2020/12/18 00:01:09;;;;;;;16.58;2.45;;;;;;;;;;4912417;28;20499;-72
2020/12/18 00:03:35;;;;;;;14.32;3.63;;;;;;;;;;4884678;28;20593;-72
2020/12/18 00:06:01;;;;;;;11.48;2.00;;;;;;;;;;4890728;28;20157;-72
2020/12/18 00:08:26;;;;;;;14.75;2.28;;;;;;;;;;4910094;28;20141;-72
2020/12/18 00:10:51;;;;;;;9.30;1.50;;;;;;;;;;4884215;28;20532;-72
2020/12/18 00:13:17;;;;;;;13.85;1.52;;;;;;;;;;4883625;28;20231;-71
2020/12/18 00:15:43;;;;;;;13.80;1.73;;;;;;;;;;4883430;28;20140;-71
2020/12/18 00:18:08;;;;;;;14.38;2.72;;;;;;;;;;4883707;28;20175;-72
2020/12/18 00:20:33;;;;;;;8.40;1.77;;;;;;;;;;4883226;28;20136;-72
2020/12/18 00:22:59;;;;;;;16.00;2.50;;;;;;;;;;4885704;28;20154;-72
2020/12/18 00:25:24;;;;;;;13.25;1.92;;;;;;;;;;4892306;28;20246;-71
2020/12/18 00:27:50;;;;;;;8.77;2.33;;;;;;;;;;4884730;28;20182;-72
2020/12/18 00:30:15;;;;;;;11.45;2.10;;;;;;;;;;4883648;28;20589;-72
2020/12/18 00:32:41;;;;;;;10.25;2.88;;;;;;;;;;4918351;28;20297;-72
2020/12/18 00:35:08;;;;;;;10.07;1.52;;;;;;;;;;4884342;28;20226;-72
2020/12/18 00:37:34;;;;;;;12.15;1.40;;;;;;;;;;4886696;28;20492;-71
2020/12/18 00:39:59;;;;;;;16.58;1.50;;;;;;;;;;4894308;28;20206;-72
2020/12/18 00:42:27;;;;;;;9.82;1.50;;;;;;;;;;4903903;28;20144;-72
2020/12/18 00:44:53;;;;;;;6.57;1.05;;;;;;;;;;4906350;28;20181;-72
2020/12/18 00:47:18;;;;;;;7.97;2.05;;;;;;;;;;4905571;28;20297;-71
2020/12/18 00:49:44;;;;;;;10.55;1.77;;;;;;;;;;4905450;28;20573;-72
2020/12/18 00:52:09;;;;;;;10.70;1.88;;;;;;;;;;4912362;28;20179;-71
2020/12/18 00:54:35;;;;;;;9.02;1.23;;;;;;;;;;4897826;28;20165;-72
2020/12/18 00:57:00;;;;;;;10.02;1.63;;;;;;;;;;4891873;28;20214;-71
2020/12/18 00:59:26;;;;;;;7.80;1.73;;;;;;;;;;4885366;28;20611;-71
2020/12/18 01:02:01;;;;;;;14.35;3.17;;;;;;;;;;4901482;28;20848;-71
2020/12/18 01:04:27;;;;;;;10.57;1.45;;;;;;;;;;4888321;28;20188;-72
2020/12/18 01:06:53;;;;;;;9.32;1.77;;;;;;;;;;4901219;28;20260;-71
2020/12/18 01:09:19;;;;;;;6.13;2.10;;;;;;;;;;4882400;28;20617;-71
2020/12/18 01:11:45;;;;;;;6.10;1.88;;;;;;;;;;4884963;28;20167;-71
2020/12/18 01:14:10;;;;;;;15.30;1.75;;;;;;;;;;4906484;28;20590;-72
2020/12/18 01:16:35;;;;;;;12.93;1.73;;;;;;;;;;4873634;28;20273;-71
2020/12/18 01:19:01;;;;;;;10.52;1.63;;;;;;;;;;4885820;28;20500;-72
2020/12/18 01:21:26;;;;;;;11.30;1.83;;;;;;;;;;4885249;28;20268;-71
2020/12/18 01:23:52;;;;;;;10.48;1.52;;;;;;;;;;4885223;28;20215;-71
2020/12/18 01:26:17;;;;;;;14.18;1.83;;;;;;;;;;4885845;28;20199;-71
2020/12/18 01:28:43;;;;;;;7.78;1.58;;;;;;;;;;4886100;28;20212;-71
2020/12/18 01:31:08;;;;;;;10.65;1.30;;;;;;;;;;4885150;28;20199;-71
2020/12/18 01:33:34;;;;;;;9.68;1.90;;;;;;;;;;4887692;28;20216;-71
2020/12/18 01:36:00;;;;;;;7.68;1.42;;;;;;;;;;4918203;28;20202;-71
2020/12/18 01:38:25;;;;;;;7.75;1.88;;;;;;;;;;4886469;28;20176;-71
2020/12/18 01:40:51;;;;;;;16.25;1.73;;;;;;;;;;4885760;28;20199;-71
2020/12/18 01:43:16;;;;;;;9.82;1.60;;;;;;;;;;4885373;28;20450;-71
2020/12/18 01:45:42;;;;;;;10.68;1.65;;;;;;;;;;4886424;28;20657;-71
2020/12/18 01:48:07;;;;;;;10.38;1.50;;;;;;;;;;4886885;28;20171;-71
2020/12/18 01:50:33;;;;;;;7.85;1.55;;;;;;;;;;4916169;28;20211;-71
2020/12/18 01:52:58;;;;;;;9.82;2.00;;;;;;;;;;4885503;28;20636;-71
2020/12/18 01:55:24;;;;;;;16.85;1.80;;;;;;;;;;4884600;28;20524;-71
2020/12/18 01:57:50;;;;;;;9.57;2.17;;;;;;;;;;4884835;28;20490;-71
2020/12/18 02:00:16;;;;;;;12.32;1.30;;;;;;;;;;4891705;28;20179;-72
2020/12/18 02:02:41;;;;;;;10.68;2.00;;;;;;;;;;4884658;28;20229;-71
2020/12/18 02:05:07;;;;;;;18.23;2.35;;;;;;;;;;4885221;28;20224;-71
2020/12/18 02:07:35;;;;;;;16.83;2.85;;;;;;;;;;4884739;28;20166;-71
2020/12/18 02:10:01;;;;;;;12.50;2.17;;;;;;;;;;4891556;28;20268;-71
2020/12/18 02:12:26;;;;;;;11.07;1.60;;;;;;;;;;4911319;28;20513;-72
2020/12/18 02:14:52;;;;;;;8.63;1.80;;;;;;;;;;4880594;28;20247;-72
2020/12/18 02:17:18;;;;;;;14.07;2.10;;;;;;;;;;4884447;28;20171;-72
2020/12/18 02:19:50;;;;;;;11.68;1.88;;;;;;;;;;4890948;28;20181;-72
2020/12/18 02:22:16;;;;;;;7.20;1.65;;;;;;;;;;4884042;28;20161;-72
2020/12/18 02:24:49;;;;;;;14.80;2.42;;;;;;;;;;4884627;28;20141;-72
2020/12/18 02:27:15;;;;;;;9.90;2.13;;;;;;;;;;4885080;28;20206;-72
2020/12/18 02:29:40;;;;;;;24.17;3.63;;;;;;;;;;4886533;28;20271;-72
2020/12/18 02:32:06;;;;;;;8.45;2.47;;;;;;;;;;4884610;28;20282;-72
2020/12/18 02:34:33;;;;;;;10.13;2.60;;;;;;;;;;4884287;28;20287;-72
2020/12/18 02:36:59;;;;;;;16.13;3.15;;;;;;;;;;4883967;28;20201;-72
2020/12/18 02:39:25;;;;;;;12.05;2.30;;;;;;;;;;4884463;28;20163;-73
2020/12/18 02:41:50;;;;;;;12.43;2.40;;;;;;;;;;4888568;28;20168;-72
2020/12/18 02:44:15;;;;;;;19.60;3.47;;;;;;;;;;4884089;28;20325;-72
2020/12/18 02:46:41;;;;;;;11.07;2.17;;;;;;;;;;4884300;28;20165;-72
2020/12/18 02:49:06;;;;;;;12.18;2.28;;;;;;;;;;4883506;28;20261;-72
2020/12/18 02:51:32;;;;;;;12.48;2.05;;;;;;;;;;4890639;28;20547;-72
2020/12/18 02:53:57;;;;;;;12.60;3.45;;;;;;;;;;4884073;28;20187;-72
2020/12/18 02:56:27;;;;;;;11.18;3.17;;;;;;;;;;4892895;28;20536;-73
2020/12/18 02:58:52;;;;;;;14.93;3.17;;;;;;;;;;4883160;28;20485;-72
2020/12/18 03:01:18;;;;;;;14.48;3.72;;;;;;;;;;4888603;28;20239;-72
2020/12/18 03:03:44;;;;;;;15.10;3.50;;;;;;;;;;4911433;28;20154;-72
2020/12/18 03:06:09;;;;;;;15.45;2.70;;;;;;;;;;4892393;28;20612;-72
2020/12/18 03:08:35;;;;;;;15.68;4.13;;;;;;;;;;4892519;28;20257;-72
2020/12/18 03:11:00;;;;;;;14.00;3.78;;;;;;;;;;4883316;28;20164;-72
2020/12/18 03:13:26;;;;;;;11.57;3.35;;;;;;;;;;4883100;28;20237;-72
2020/12/18 03:15:52;;;;;;;15.32;2.97;;;;;;;;;;4883259;28;20211;-72
2020/12/18 03:18:18;;;;;;;16.95;3.42;;;;;;;;;;4882820;28;20486;-72
2020/12/18 03:20:43;;;;;;;13.43;3.22;;;;;;;;;;4882721;28;20579;-72
2020/12/18 03:23:08;;;;;;;11.35;2.50;;;;;;;;;;4883018;28;20160;-72
2020/12/18 03:25:35;;;;;;;15.38;3.83;;;;;;;;;;4883658;28;20246;-72
2020/12/18 03:28:01;;;;;;;9.27;2.20;;;;;;;;;;4883060;28;20251;-72
2020/12/18 03:30:26;;;;;;;10.30;2.08;;;;;;;;;;4883452;28;20583;-72
2020/12/18 03:32:52;;;;;;;11.95;2.67;;;;;;;;;;4906409;28;20277;-72
2020/12/18 03:35:18;;;;;;;8.10;1.42;;;;;;;;;;4883557;28;20579;-72
2020/12/18 03:37:43;;;;;;;10.05;2.25;;;;;;;;;;4885632;28;20575;-72
2020/12/18 03:40:09;;;;;;;10.27;1.95;;;;;;;;;;4882586;28;20187;-72
2020/12/18 03:42:35;;;;;;;13.18;1.98;;;;;;;;;;4902262;28;20140;-72
2020/12/18 03:45:00;;;;;;;13.60;1.70;;;;;;;;;;4883575;28;20699;-73
2020/12/18 03:47:26;;;;;;;10.43;1.50;;;;;;;;;;4890171;28;20288;-72
2020/12/18 03:49:51;;;;;;;13.05;1.52;;;;;;;;;;4889940;28;20352;-72
2020/12/18 03:52:17;;;;;;;8.10;2.33;;;;;;;;;;4883337;28;20302;-72
2020/12/18 03:54:42;;;;;;;7.07;1.20;;;;;;;;;;4883167;28;20187;-73
2020/12/18 03:57:08;;;;;;;7.85;1.20;;;;;;;;;;4890258;28;20279;-72
2020/12/18 03:59:33;;;;;;;9.35;1.33;;;;;;;;;;4883152;28;20282;-73
2020/12/18 04:01:59;;;;;;;8.88;1.40;;;;;;;;;;4883004;28;20645;-72
2020/12/18 04:04:24;;;;;;;7.55;1.45;;;;;;;;;;4882887;28;20614;-72
2020/12/18 04:06:50;;;;;;;8.23;1.45;;;;;;;;;;4882818;28;20266;-72
2020/12/18 04:09:15;;;;;;;10.30;1.30;;;;;;;;;;4884183;28;20214;-72
2020/12/18 04:11:41;;;;;;;9.75;1.70;;;;;;;;;;4893616;28;20174;-72
2020/12/18 04:14:08;;;;;;;9.05;1.70;;;;;;;;;;4887013;28;20168;-72
2020/12/18 04:16:34;;;;;;;7.70;1.10;;;;;;;;;;4894013;28;20162;-72
2020/12/18 04:19:00;;;;;;;6.70;1.20;;;;;;;;;;4886592;28;20191;-72
2020/12/18 04:21:25;;;;;;;7.72;1.10;;;;;;;;;;4886818;28;20237;-72
2020/12/18 04:23:51;;;;;;;5.43;0.90;;;;;;;;;;4886960;28;20211;-72
2020/12/18 04:26:17;;;;;;;7.47;1.30;;;;;;;;;;4886915;28;20556;-72
2020/12/18 04:28:42;;;;;;;3.85;1.40;;;;;;;;;;4886428;28;20221;-72
2020/12/18 04:31:08;;;;;;;3.97;0.90;;;;;;;;;;4888710;28;20202;-72
2020/12/18 04:33:35;;;;;;;3.47;0.73;;;;;;;;;;4886575;28;20301;-72
2020/12/18 04:36:00;;;;;;;7.03;0.90;;;;;;;;;;4893436;28;20259;-72
2020/12/18 04:38:25;;;;;;;5.90;1.00;;;;;;;;;;4886851;28;20293;-72
2020/12/18 04:40:51;;;;;;;5.68;1.02;;;;;;;;;;4886429;28;20523;-72
2020/12/18 04:43:16;;;;;;;8.07;1.30;;;;;;;;;;4890350;28;20218;-72
2020/12/18 04:45:42;;;;;;;5.63;1.10;;;;;;;;;;4918300;28;20257;-73
2020/12/18 04:48:08;;;;;;;4.07;0.80;;;;;;;;;;4886436;28;20301;-72
2020/12/18 04:50:34;;;;;;;5.63;1.35;;;;;;;;;;4892417;28;20187;-72
2020/12/18 04:53:01;;;;;;;3.05;1.20;;;;;;;;;;4885895;28;20214;-72
2020/12/18 04:55:28;;;;;;;4.25;0.70;;;;;;;;;;4886070;28;20601;-72
2020/12/18 04:57:53;;;;;;;3.90;1.25;;;;;;;;;;4885610;28;20251;-72
2020/12/18 05:00:20;;;;;;;3.92;1.27;;;;;;;;;;4886042;28;20299;-72
2020/12/18 05:02:46;;;;;;;2.47;1.15;;;;;;;;;;4884793;28;20523;-72
2020/12/18 05:05:12;;;;;;;3.13;0.80;;;;;;;;;;4885796;28;20546;-72
2020/12/18 05:07:37;;;;;;;3.88;0.90;;;;;;;;;;4892031;28;20156;-72
2020/12/18 05:10:06;;;;;;;0.90;0.40;;;;;;;;;;4885546;28;20563;-73
2020/12/18 05:12:32;;;;;;;2.90;0.52;;;;;;;;;;4885463;28;20167;-73
2020/12/18 05:14:58;;;;;;;5.72;0.60;;;;;;;;;;4885306;28;20168;-72
2020/12/18 05:17:25;;;;;;;3.25;0.60;;;;;;;;;;4892920;28;20277;-72
2020/12/18 05:19:51;;;;;;;1.55;0.73;;;;;;;;;;4887950;28;20181;-72
2020/12/18 05:22:21;;;;;;;2.75;0.60;;;;;;;;;;4885152;28;20203;-72
2020/12/18 05:24:50;;;;;;;5.25;2.72;;;;;;;;;;4892450;28;20346;-72
2020/12/18 05:27:16;;;;;;;4.53;1.17;;;;;;;;;;4885616;28;20192;-72
2020/12/18 05:29:42;;;;;;;4.55;1.58;;;;;;;;;;4885167;28;20168;-72
2020/12/18 05:32:07;;;;;;;7.88;1.90;;;;;;;;;;4887224;28;20191;-72
2020/12/18 05:34:33;;;;;;;7.10;1.20;;;;;;;;;;4884941;28;20347;-72
2020/12/18 05:37:01;;;;;;;7.95;0.85;;;;;;;;;;4885224;28;20199;-72
2020/12/18 05:39:27;;;;;;;4.25;0.80;;;;;;;;;;4885315;28;20523;-72
2020/12/18 05:41:58;;;;;;;5.22;0.80;;;;;;;;;;4884736;28;20159;-72
2020/12/18 05:44:27;;;;;;;5.53;1.02;;;;;;;;;;4884843;28;20199;-72
2020/12/18 05:47:01;;;;;;;6.75;1.25;;;;;;;;;;4891371;28;20257;-72
2020/12/18 05:49:28;;;;;;;5.43;1.30;;;;;;;;;;4891130;28;20349;-73
2020/12/18 05:51:53;;;;;;;8.43;1.40;;;;;;;;;;4883684;28;20251;-72
2020/12/18 05:54:19;;;;;;;4.32;1.30;;;;;;;;;;4883771;28;20358;-72
2020/12/18 05:56:45;;;;;;;5.40;1.48;;;;;;;;;;4883388;28;20171;-72
2020/12/18 05:59:14;;;;;;;5.53;1.65;;;;;;;;;;4883620;28;20566;-72
2020/12/18 06:01:44;;;;;;;3.53;1.48;;;;;;;;;;4883942;28;20198;-72
2020/12/18 06:04:16;;;;;;;9.02;1.90;;;;;;;;;;4885962;28;20217;-72
2020/12/18 06:06:43;;;;;;;5.30;1.33;;;;;;;;;;4884566;28;20196;-72
2020/12/18 06:09:10;;;;;;;5.97;1.05;;;;;;;;;;4884470;28;20170;-72
2020/12/18 06:11:36;;;;;;;8.55;1.15;;;;;;;;;;4884415;28;20170;-72
2020/12/18 06:14:03;;;;;;;4.85;0.95;;;;;;;;;;4883781;28;20286;-72
2020/12/18 06:16:29;;;;;;;2.45;0.45;;;;;;;;;;4884591;28;20485;-72
2020/12/18 06:19:15;;;;;;;5.80;0.70;;;;;;;;;;4912627;28;20266;-72
2020/12/18 06:22:10;;;;;;;2.05;0.50;;;;;;;;;;4872723;28;20174;-72
2020/12/18 06:24:44;;;;;;;3.60;0.52;;;;;;;;;;4879289;28;20350;-72
2020/12/18 06:27:12;;;;;;;2.65;0.70;;;;;;;;;;4884136;28;20530;-72
2020/12/18 06:29:38;;;;;;;2.60;0.60;;;;;;;;;;4884734;28;20334;-74
2020/12/18 06:32:30;;;;;;;3.45;0.68;;;;;;;;;;4891463;28;20172;-74
2020/12/18 06:35:16;;;;;;;6.60;1.00;;;;;;;;;;4882479;28;20513;-74
2020/12/18 06:37:41;;;;;;;2.13;0.68;;;;;;;;;;4880867;28;20270;-74
2020/12/18 06:40:07;;;;;;;3.85;0.60;;;;;;;;;;4892820;28;20183;-74
2020/12/18 06:42:32;;;;;;;5.60;0.70;;;;;;;;;;4887196;28;20178;-72
2020/12/18 06:45:00;;;;;;;6.22;1.23;;;;;;;;;;4883723;28;20584;-72
2020/12/18 06:47:26;;;;;;;5.72;0.68;;;;;;;;;;4883735;28;20179;-72
2020/12/18 06:49:54;;;;;;;1.73;0.50;;;;;;;;;;4883987;28;20168;-72
2020/12/18 06:52:38;;;;;;;3.75;0.47;;;;;;;;;;4890309;28;20274;-72
2020/12/18 06:55:05;;;;;;;1.85;1.08;;;;;;;;;;4882577;28;20203;-72
2020/12/18 06:57:30;;;;;;;2.85;0.60;;;;;;;;;;4882939;28;20191;-71
2020/12/18 07:00:15;;;;;;;2.63;0.68;;;;;;;;;;4883412;28;20147;-72
2020/12/18 07:02:40;;;;;;;1.70;0.52;;;;;;;;;;4883267;28;20309;-72
2020/12/18 07:05:26;;;;;;;6.65;2.40;;;;;;;;;;4883601;28;20600;-72
2020/12/18 07:07:53;;;;;;;0.88;0.40;;;;;;;;;;4883556;28;20262;-72
2020/12/18 07:10:19;;;;;;;2.20;0.70;;;;;;;;;;4883804;28;20173;-72
2020/12/18 07:12:49;;;;;;;1.80;0.77;;;;;;;;;;4883539;28;20523;-72
2020/12/18 07:15:16;;;;;;;2.85;0.55;;;;;;;;;;4883007;28;20635;-72
2020/12/18 07:17:49;;;;;;;2.80;1.08;;;;;;;;;;4907062;28;20552;-72
2020/12/18 07:20:15;;;;;;;5.40;1.08;;;;;;;;;;4910886;28;20158;-73
2020/12/18 07:22:40;;;;;;;3.05;1.30;;;;;;;;;;4876989;28;20645;-72
2020/12/18 07:25:12;;;;;;;5.60;1.27;;;;;;;;;;4897006;28;20271;-72
2020/12/18 07:27:38;;;;;;;2.58;1.30;;;;;;;;;;4881965;28;20269;-72
2020/12/18 07:30:13;;;;;;;2.65;1.10;;;;;;;;;;4883191;28;20198;-72
2020/12/18 07:32:39;;;;;;;3.30;1.10;;;;;;;;;;4889606;28;20314;-72
2020/12/18 07:35:08;;;;;;;2.63;1.10;;;;;;;;;;4898231;28;20338;-72
2020/12/18 07:37:34;;;;;;;3.58;1.17;;;;;;;;;;4891674;28;20256;-72
2020/12/18 07:40:00;;;;;;;2.78;0.82;;;;;;;;;;4920032;28;20163;-72
2020/12/18 07:42:29;;;;;;;7.78;1.25;;;;;;;;;;4891908;28;20213;-73
2020/12/18 07:45:13;;;;;;;4.20;0.70;;;;;;;;;;4879405;28;20253;-72
2020/12/18 07:47:39;;;;;;;1.45;0.77;;;;;;;;;;4909488;28;20582;-72
2020/12/18 07:50:06;;;;;;;1.40;0.50;;;;;;;;;;4881013;28;20265;-73
2020/12/18 07:52:32;;;;;;;3.75;0.60;;;;;;;;;;4880204;28;20274;-72
2020/12/18 07:54:58;;;;;;;2.40;0.40;;;;;;;;;;4878520;28;20176;-72
2020/12/18 07:57:26;;;;;;;4.88;0.93;;;;;;;;;;4891315;28;20186;-72
2020/12/18 08:00:04;;;;;;;3.65;0.80;;;;;;;;;;4880395;28;21232;-72
2020/12/18 08:02:29;;;;;;;6.15;0.75;;;;;;;;;;4918477;28;20187;-73
2020/12/18 08:04:58;;;;;;;4.00;0.60;;;;;;;;;;4889071;28;20206;-72
2020/12/18 08:07:24;;;;;;;1.52;0.40;;;;;;;;;;4886661;28;20286;-72
2020/12/18 08:10:16;;;;;;;2.92;0.50;;;;;;;;;;4894045;28;20297;-72
2020/12/18 08:12:41;;;;;;;8.05;0.70;;;;;;;;;;4884955;28;20210;-73
2020/12/18 08:15:11;;;;;;;3.38;0.50;;;;;;;;;;4893573;28;20223;-72
2020/12/18 08:17:37;;;;;;;3.70;0.73;;;;;;;;;;4881509;28;20279;-71
2020/12/18 08:20:03;;;;;;;3.58;0.68;;;;;;;;;;4879744;28;20278;-72
2020/12/18 08:22:32;;;;;;;5.32;0.60;;;;;;;;;;4889965;28;20230;-74
2020/12/18 08:24:58;;;;;;;4.40;0.50;;;;;;;;;;4883882;28;20560;-74
2020/12/18 08:27:25;;;;;;;1.33;0.52;;;;;;;;;;4885487;28;20170;-74
2020/12/18 08:29:52;;;;;;;1.63;0.50;;;;;;;;;;4897097;28;20239;-74
2020/12/18 08:32:26;;;;;;;5.22;0.63;;;;;;;;;;4895804;28;20548;-75
2020/12/18 08:34:58;;;;;;;9.25;1.00;;;;;;;;;;4893511;28;21429;-74
2020/12/18 08:37:23;;;;;;;3.85;0.63;;;;;;;;;;4900183;28;20132;-74
2020/12/18 08:39:49;;;;;;;1.67;0.60;;;;;;;;;;4894947;28;20623;-74
2020/12/18 08:42:18;;;;;;;3.30;0.70;;;;;;;;;;4887211;28;20195;-74
2020/12/18 08:44:44;;;;;;;5.50;0.80;;;;;;;;;;4889454;28;20254;-74
2020/12/18 08:47:36;;;;;;;5.85;0.80;;;;;;;;;;4886676;28;20144;-74
2020/12/18 08:50:01;;;;;;;3.70;0.50;;;;;;;;;;4880997;28;20635;-74
2020/12/18 08:52:28;;;;;;;5.32;0.88;;;;;;;;;;4884245;28;20274;-73
2020/12/18 08:55:00;;;;;;;2.13;0.60;;;;;;;;;;4886243;28;20264;-73
2020/12/18 08:57:28;;;;;;;4.25;0.52;;;;;;;;;;4885984;28;20250;-73
2020/12/18 09:00:11;;;;;;;2.95;0.60;;;;;;;;;;4889458;28;20191;-73
2020/12/18 09:02:39;;;;;;;4.13;0.77;;;;;;;;;;4895564;28;20193;-73
2020/12/18 09:05:11;;;;;;;5.97;0.93;;;;;;;;;;4875506;28;20178;-73
2020/12/18 09:07:41;;;;;;;3.97;0.93;;;;;;;;;;4879071;28;20272;-73
2020/12/18 09:10:06;;;;;;;7.10;1.00;;;;;;;;;;4877630;28;20186;-73
2020/12/18 09:12:37;;;;;;;9.05;1.05;;;;;;;;;;4878230;28;20531;-73
2020/12/18 09:15:21;;;;;;;4.43;0.63;;;;;;;;;;4899043;28;20141;-73
2020/12/18 09:17:56;;;;;;;6.10;0.90;;;;;;;;;;4877385;28;20239;-73
2020/12/18 09:20:23;;;;;;;7.07;0.85;;;;;;;;;;4877795;28;20264;-73
2020/12/18 09:22:59;;;;;;;9.30;0.80;;;;;;;;;;4878552;28;20330;-73
2020/12/18 09:25:25;;;;;;;9.93;1.08;;;;;;;;;;4878861;28;20168;-74
2020/12/18 09:27:51;;;;;;;8.40;1.02;;;;;;;;;;4879668;28;20246;-73
2020/12/18 09:30:20;;;;;;;9.70;1.17;;;;;;;;;;4890805;28;20190;-73
2020/12/18 09:32:46;;;;;;;5.00;0.75;;;;;;;;;;4889951;28;20192;-73
2020/12/18 09:35:12;;;;;;;8.00;0.90;;;;;;;;;;4859539;28;20195;-72
2020/12/18 09:37:37;;;;;;;9.23;1.13;;;;;;;;;;4865595;28;20137;-73
2020/12/18 09:40:02;;;;;;;10.75;1.08;;;;;;;;;;4877825;28;20280;-73
2020/12/18 09:42:28;;;;;;;6.07;0.80;;;;;;;;;;4882470;28;20215;-73
2020/12/18 09:44:53;;;;;;;6.30;1.60;;;;;;;;;;4875638;28;20190;-73
2020/12/18 09:47:19;;;;;;;9.23;1.00;;;;;;;;;;4877532;28;20211;-73
2020/12/18 09:49:44;;;;;;;8.88;1.00;;;;;;;;;;4885190;28;20178;-73
2020/12/18 09:52:11;;;;;;;3.85;0.77;;;;;;;;;;4878984;28;20175;-73
2020/12/18 09:54:37;;;;;;;6.22;1.60;;;;;;;;;;4885698;28;20168;-73
2020/12/18 09:57:02;;;;;;;8.82;0.68;;;;;;;;;;4884278;28;20242;-73
2020/12/18 09:59:28;;;;;;;5.63;0.70;;;;;;;;;;4890375;28;20245;-72
2020/12/18 10:01:54;;;;;;;4.88;0.50;;;;;;;;;;4865192;28;20474;-73
2020/12/18 10:04:19;;;;;;;1.88;0.40;;;;;;;;;;4890245;28;20220;-73
2020/12/18 10:06:45;;;;;;;2.88;0.45;;;;;;;;;;4891583;28;20167;-73
2020/12/18 10:09:11;;;;;;;3.53;0.60;;;;;;;;;;4894741;28;20186;-72
2020/12/18 10:11:37;;;;;;;4.65;0.60;;;;;;;;;;4890433;28;20182;-72
2020/12/18 10:14:02;;;;;;;1.88;0.38;;;;;;;;;;4895630;28;20266;-73
2020/12/18 10:16:29;;;;;;;2.65;0.55;;;;;;;;;;4895786;28;20260;-72
2020/12/18 10:18:56;;;;;;;2.83;0.75;;;;;;;;;;4893391;28;20174;-73
2020/12/18 10:21:21;;;;;;;3.08;0.55;;;;;;;;;;4894732;28;20244;-72
2020/12/18 10:23:47;;;;;;;2.17;0.68;;;;;;;;;;4898461;28;20281;-72
2020/12/18 10:26:13;;;;;;;7.03;0.52;;;;;;;;;;4896307;28;20257;-72
2020/12/18 10:28:38;;;;;;;1.90;0.70;;;;;;;;;;4895449;28;20591;-72
2020/12/18 10:31:04;;;;;;;5.15;1.42;;;;;;;;;;4890191;28;20163;-72
2020/12/18 10:33:30;;;;;;;3.15;1.20;;;;;;;;;;4893735;28;20144;-71
2020/12/18 10:35:55;;;;;;;4.63;1.20;;;;;;;;;;4892132;28;20254;-73
2020/12/18 10:38:24;;;;;;;4.38;1.50;;;;;;;;;;4902323;28;20270;-72
2020/12/18 10:40:51;;;;;;;3.08;1.08;;;;;;;;;;4868883;28;20241;-72
2020/12/18 10:43:18;;;;;;;2.53;1.15;;;;;;;;;;4897251;28;20307;-72
2020/12/18 10:45:44;;;;;;;7.45;1.60;;;;;;;;;;4896503;28;20202;-72
2020/12/18 10:48:09;;;;;;;5.72;1.60;;;;;;;;;;4885569;28;20196;-72
2020/12/18 10:50:35;;;;;;;4.25;1.23;;;;;;;;;;4893840;28;20179;-72
2020/12/18 10:53:05;;;;;;;5.05;1.58;;;;;;;;;;4882460;28;20221;-72
2020/12/18 10:55:31;;;;;;;4.28;1.40;;;;;;;;;;4880814;28;20548;-73
2020/12/18 10:57:57;;;;;;;4.97;1.05;;;;;;;;;;4880351;28;20170;-72
2020/12/18 11:00:22;;;;;;;5.50;1.20;;;;;;;;;;4916737;28;20284;-72
2020/12/18 11:02:48;;;;;;;3.50;1.10;;;;;;;;;;4894634;28;20268;-72
2020/12/18 11:05:14;;;;;;;3.53;0.75;;;;;;;;;;4890729;28;20183;-72
2020/12/18 11:07:40;;;;;;;3.58;0.50;;;;;;;;;;4894368;28;20237;-73
2020/12/18 11:10:05;;;;;;;2.35;0.30;;;;;;;;;;4886484;28;20490;-73
2020/12/18 11:12:31;;;;;;;1.85;0.80;;;;;;;;;;4878010;28;20160;-73
2020/12/18 11:14:56;;;;;;;1.42;0.40;;;;;;;;;;4885694;28;20271;-73
2020/12/18 11:17:22;;;;;;;2.35;0.60;;;;;;;;;;4864746;28;20175;-72
2020/12/18 11:19:48;;;;;;;2.42;1.02;;;;;;;;;;4874137;28;20493;-73
2020/12/18 11:22:13;;;;;;;2.22;0.43;;;;;;;;;;4869482;28;20563;-73
2020/12/18 11:24:39;;;;;;;4.50;0.68;;;;;;;;;;4880492;28;20442;-74
2020/12/18 11:27:04;;;;;;;3.78;0.60;;;;;;;;;;4878027;28;20142;-74
2020/12/18 11:29:30;;;;;;;3.13;0.50;;;;;;;;;;4882435;28;20226;-74
2020/12/18 11:31:55;;;;;;;8.63;0.88;;;;;;;;;;4883505;28;20259;-74
2020/12/18 11:34:21;;;;;;;7.45;0.80;;;;;;;;;;4881948;28;20594;-74
2020/12/18 11:36:47;;;;;;;1.70;0.50;;;;;;;;;;4890332;28;20657;-73
2020/12/18 11:39:12;;;;;;;4.25;1.15;;;;;;;;;;4876419;28;20183;-74
2020/12/18 11:41:38;;;;;;;2.58;0.65;;;;;;;;;;4898587;28;20276;-74
2020/12/18 11:44:04;;;;;;;3.05;0.70;;;;;;;;;;4883389;28;20172;-74
2020/12/18 11:46:29;;;;;;;1.25;0.63;;;;;;;;;;4881952;28;20245;-73
2020/12/18 11:48:55;;;;;;;3.78;0.88;;;;;;;;;;4898072;28;20284;-73
2020/12/18 11:51:26;;;;;;;6.05;1.65;;;;;;;;;;4877293;28;20194;-73
2020/12/18 11:53:52;;;;;;;3.22;0.80;;;;;;;;;;4888537;28;20243;-73
2020/12/18 11:56:17;;;;;;;2.22;0.90;;;;;;;;;;4886379;28;20329;-73
2020/12/18 11:58:43;;;;;;;4.85;0.90;;;;;;;;;;4877997;28;20233;-73
2020/12/18 12:01:08;;;;;;;2.55;1.15;;;;;;;;;;4875514;28;20288;-73
2020/12/18 12:03:33;;;;;;;4.68;1.08;;;;;;;;;;4891025;28;20642;-73
2020/12/18 12:06:00;;;;;;;8.65;1.48;;;;;;;;;;4883985;28;20545;-72
2020/12/18 12:08:26;;;;;;;9.40;2.97;;;;;;;;;;4879250;28;20336;-73
2020/12/18 12:10:51;;;;;;;7.03;2.63;;;;;;;;;;4882134;28;20190;-72
2020/12/18 12:13:17;;;;;;;7.03;2.08;;;;;;;;;;4898680;28;20275;-73
2020/12/18 12:15:43;;;;;;;6.07;1.52;;;;;;;;;;4872028;28;20499;-73
2020/12/18 12:18:09;;;;;;;6.45;1.60;;;;;;;;;;4883688;28;20170;-73
2020/12/18 12:20:34;;;;;;;6.97;1.70;;;;;;;;;;4874618;28;20242;-73
2020/12/18 12:22:59;;;;;;;3.17;0.90;;;;;;;;;;4881732;28;20328;-72
2020/12/18 12:25:25;;;;;;;3.35;1.33;;;;;;;;;;4876870;28;20190;-72
2020/12/18 12:27:51;;;;;;;4.07;1.05;;;;;;;;;;4880484;28;20182;-72
2020/12/18 12:30:16;;;;;;;2.67;1.05;;;;;;;;;;4872934;28;20187;-72
2020/12/18 12:32:42;;;;;;;2.95;1.00;;;;;;;;;;4880475;28;20536;-71
2020/12/18 12:35:07;;;;;;;4.10;0.93;;;;;;;;;;4882294;28;20511;-72
2020/12/18 12:37:34;;;;;;;8.13;2.60;;;;;;;;;;4883124;28;20183;-72
2020/12/18 12:39:59;;;;;;;2.83;0.90;;;;;;;;;;4891591;28;20272;-72
2020/12/18 12:42:26;;;;;;;8.13;1.45;;;;;;;;;;4890435;28;20230;-71
2020/12/18 12:44:52;;;;;;;6.63;4.07;;;;;;;;;;4878085;28;20308;-72
2020/12/18 12:47:17;;;;;;;3.95;1.75;;;;;;;;;;4891392;28;20224;-72
2020/12/18 12:49:43;;;;;;;9.32;2.80;;;;;;;;;;4878714;28;20531;-72
2020/12/18 12:52:09;;;;;;;13.93;5.72;;;;;;;;;;4877924;28;20176;-73
2020/12/18 12:54:34;;;;;;;13.73;5.07;;;;;;;;;;4868485;28;20176;-71
2020/12/18 12:57:00;;;;;;;26.75;10.48;;;;;;;;;;4877154;28;20258;-73
2020/12/18 12:59:26;;;;;;;13.40;5.35;;;;;;;;;;4878151;28;20524;-73
2020/12/18 13:01:51;;;;;;;16.63;5.10;;;;;;;;;;4876309;28;20092;-72
2020/12/18 13:04:19;;;;;;;7.13;2.58;;;;;;;;;;4886876;28;20550;-72
2020/12/18 13:06:44;;;;;;;19.48;3.97;;;;;;;;;;4881003;28;20199;-72
2020/12/18 13:09:10;;;;;;;28.10;7.80;;;;;;;;;;4891476;28;20146;-73
2020/12/18 13:11:39;;;;;;;13.85;4.53;;;;;;;;;;4875017;28;20243;-72
2020/12/18 13:14:05;;;;;;;22.42;8.00;;;;;;;;;;4884924;28;20182;-73
2020/12/18 13:16:31;;;;;;;31.60;12.05;;;;;;;;;;4879813;28;20144;-72
2020/12/18 13:18:57;;;;;;;15.27;5.68;;;;;;;;;;4875608;28;20254;-72
2020/12/18 13:21:27;;;;;;;14.00;3.53;;;;;;;;;;4893725;28;20202;-72
2020/12/18 13:23:53;;;;;;;10.70;4.25;;;;;;;;;;4882246;28;20168;-72
2020/12/18 13:26:18;;;;;;;13.27;4.10;;;;;;;;;;4882789;28;20289;-73
2020/12/18 13:28:43;;;;;;;18.48;4.40;;;;;;;;;;4879319;28;20566;-72
2020/12/18 13:31:09;;;;;;;19.65;5.85;;;;;;;;;;4894158;28;20136;-72
2020/12/18 13:33:35;;;;;;;15.20;4.47;;;;;;;;;;4895397;28;20569;-73
2020/12/18 13:36:00;;;;;;;7.40;2.10;;;;;;;;;;4880453;28;20278;-72
2020/12/18 13:38:27;;;;;;;12.50;4.20;;;;;;;;;;4894247;28;20167;-72
2020/12/18 13:40:55;;;;;;;11.93;3.35;;;;;;;;;;4882492;28;20498;-73
2020/12/18 13:43:22;;;;;;;9.75;3.50;;;;;;;;;;4887010;28;20239;-72
2020/12/18 13:45:47;;;;;;;9.38;1.83;;;;;;;;;;4881993;28;20174;-72
2020/12/18 13:48:13;;;;;;;10.65;2.40;;;;;;;;;;4889206;28;20189;-72
2020/12/18 13:50:38;;;;;;;6.45;1.52;;;;;;;;;;4900957;28;20544;-72
2020/12/18 13:53:03;;;;;;;5.80;1.88;;;;;;;;;;4895013;28;20171;-72
2020/12/18 13:55:29;;;;;;;8.25;1.55;;;;;;;;;;4893790;28;20234;-72
2020/12/18 13:57:56;;;;;;;10.30;2.40;;;;;;;;;;4887516;28;20259;-72
2020/12/18 14:00:33;;;;;;;8.27;2.45;;;;;;;;;;4874747;28;20144;-72
2020/12/18 14:02:59;;;;;;;8.18;1.77;;;;;;;;;;4880309;28;20589;-73
2020/12/18 14:05:25;;;;;;;5.88;1.30;;;;;;;;;;4885872;28;20213;-72
2020/12/18 14:07:50;;;;;;;10.35;2.30;;;;;;;;;;4887939;28;20257;-72
2020/12/18 14:10:18;;;;;;;10.10;1.80;;;;;;;;;;4888794;28;20178;-72
2020/12/18 14:12:43;;;;;;;7.32;1.98;;;;;;;;;;4879474;28;20168;-72
2020/12/18 14:15:09;;;;;;;6.65;1.60;;;;;;;;;;4892286;28;20210;-72
2020/12/18 14:17:35;;;;;;;8.75;1.52;;;;;;;;;;4874602;28;20236;-72
2020/12/18 14:20:00;;;;;;;4.32;1.00;;;;;;;;;;4877800;28;20223;-72
2020/12/18 14:22:26;;;;;;;5.45;1.02;;;;;;;;;;4872559;28;20558;-72
2020/12/18 14:24:54;;;;;;;6.30;1.60;;;;;;;;;;4885729;28;20173;-72
2020/12/18 14:27:20;;;;;;;9.18;1.58;;;;;;;;;;4892237;28;20226;-72
2020/12/18 14:29:46;;;;;;;7.13;1.88;;;;;;;;;;4885139;28;20273;-72
2020/12/18 14:32:15;;;;;;;2.67;1.00;;;;;;;;;;4891399;28;20570;-72
2020/12/18 14:34:41;;;;;;;22.15;1.65;;;;;;;;;;4885144;28;20229;-72
2020/12/18 14:37:10;;;;;;;5.70;1.08;;;;;;;;;;4878498;28;20254;-72